Yucaipa, CA

4:20 PM PDT on October 25, 2014 (GMT -0700)
Panorama Dr. | Change Station
CLOSE
Current Station
Personal Weather Station
Location: Yucaipa, CA
Elevation: 3114 ft
Nearby Weather Stations

Elev 3114 ft 34.04 °N, 117.02 °W | Updated 1 minute ago

Partly Cloudy
Partly Cloudy
74.7 °F
Feels Like 77 °F
N
0.0
Wind Variable Wind from SW
Gusts 11.0 mph

Today
High -- | Low -- °F
--% Chance of Precip.
Yesterday
High -- | Low -- °F
Precip. -- in
7:01 AM 6:02 PM
Waxing Crescent, 5% visible
Pressure 30.00 in
Visibility 10.0 miles
Clouds Scattered Clouds 9000 ft
Heat Index 77 °F
Dew Point 44 °F
Humidity 34%
Rainfall 0.00 in
Snow Depth Not available.
UV 2 out of 12
Pollen 3.80 out of 12
Ozone Good
Flu Activity Sporadic
METAR KSBD 252252Z 26009KT 10SM SCT090 29/04 A3000

More Conditions Fewer Conditions

Pressure 30.00 in
Visibility 10.0 miles
Clouds Scattered Clouds 9000 ft
Heat Index 77 °F
Dew Point 44 °F
Humidity 34%
Rainfall 0.00 in
Snow Depth Not available.
UV 2 out of 12
Pollen 3.80 out of 12
Ozone Good
Flu Activity Sporadic
METAR KSBD 252252Z 26009KT 10SM SCT090 29/04 A3000

More Conditions Fewer Conditions

10-Day Weather Forecast

Almanac

Astronomy

Oct. 25, 2014 Rise Set
Actual Time 7:01 AM PDT 6:02 PM PDT
Civil Twilight 6:36 AM PDT 6:27 PM PDT
Nautical Twilight 6:06 AM PDT 6:57 PM PDT
Astronomical Twilight 5:37 AM PDT 7:26 PM PDT
Moon 8:41 AM PDT 7:32 PM PDT
Length of Visible Light 11h 51m
Length of Day
11h 00m
Tomorrow will be 1m 57s shorter.
Waxing Crescent, 5% of the Moon is Illuminated
Today
Waxing Crescent
Oct 30
First Quarter
Nov 6
Full
Nov 14
Last Quarter
Nov 22
New

Today's Extremes

State Highs State Lows

Community

WunderPhotos

Upload Photos

1,765,027 photos uploaded!

Nearby

Air Quality

  Air Quality AQ Index Pollutant
Current Good
OZONE
Sunday Good
PM10
Sunday Moderate
OZONE
Sunday Good
CO
Sunday Good
NO2

Snow Depth

Station Depth Elevation
Leavitt Lake 0 in 9400 ft
Leavitt Meadows 1 in 7200 ft
Summit Meadow 0 in 9122 ft
Monitor Pass 0 in 8350 ft
Burnside Lake 0 in 8139 ft

Earthquake Activity

City Distance Mag. Time & Date
Barstow, California 63 miles 2.9 2:48 PM PDT
2014-10-25
Running Springs, California 16 miles 3.1 4:07 AM PDT
2014-10-25
Brea, California 50 miles 2.9 3:35 PM PDT
2014-10-23
Brea, California 50 miles 2.8 3:34 PM PDT
2014-10-23
Minimum magnitude displayed is 2.5.

Coastal Water Temperatures

Place Temperature
No Stations Reporting

Nearby Weather Stations